createdAt,value
2023-06-01T00:00:01.212Z,98385.38
2023-06-01T00:02:28.589Z,98375.91
2023-06-01T00:04:55.593Z,98376.75
2023-06-01T00:07:24.847Z,98378.31
2023-06-01T00:09:52.157Z,98378.31
2023-06-01T00:12:19.155Z,98375.34
2023-06-01T00:14:46.260Z,98371.56
2023-06-01T00:17:13.296Z,98379.09
2023-06-01T00:19:40.241Z,98373.94
2023-06-01T00:22:08.507Z,98381.00
2023-06-01T00:24:36.049Z,98378.22
2023-06-01T00:27:03.519Z,98374.44
2023-06-01T00:29:31.130Z,98379.81
2023-06-01T00:31:58.190Z,98376.00
2023-06-01T00:34:25.347Z,98371.75
2023-06-01T00:36:53.221Z,98375.53
2023-06-01T00:39:20.208Z,98363.38
2023-06-01T00:41:47.266Z,98367.97
2023-06-01T00:44:14.301Z,98375.50
2023-06-01T00:46:41.750Z,98376.56
2023-06-01T00:49:08.890Z,98378.19
2023-06-01T00:51:36.717Z,98377.63
2023-06-01T00:54:04.002Z,98374.97
2023-06-01T00:56:32.842Z,98376.00
2023-06-01T00:59:01.024Z,98369.25
2023-06-01T01:01:28.822Z,98367.09
2023-06-01T01:03:59.230Z,98372.25
2023-06-01T01:06:43.076Z,98366.28
2023-06-01T01:09:57.916Z,98363.66
2023-06-01T01:12:44.395Z,98363.34
2023-06-01T01:15:41.593Z,98358.19
2023-06-01T01:18:18.480Z,98357.84
2023-06-01T01:20:53.415Z,98357.28
2023-06-01T01:24:00.506Z,98360.91
2023-06-01T01:26:43.403Z,98359.22
2023-06-01T01:29:13.334Z,98356.72
2023-06-01T01:31:41.964Z,98357.50
2023-06-01T01:34:10.506Z,98347.28
2023-06-01T01:36:37.908Z,98347.50
2023-06-01T01:39:06.187Z,98347.19
2023-06-01T01:41:33.307Z,98349.97
2023-06-01T01:44:01.197Z,98347.25
2023-06-01T01:46:37.969Z,98342.94
2023-06-01T01:49:35.395Z,98341.88
2023-06-01T01:52:19.308Z,98346.75
2023-06-01T01:54:48.869Z,98342.38
2023-06-01T01:57:17.826Z,98342.31
2023-06-01T01:59:48.997Z,98343.09
2023-06-01T02:02:16.381Z,98343.00
2023-06-01T02:04:47.232Z,98341.75
2023-06-01T02:07:14.740Z,98334.09
2023-06-01T02:09:42.288Z,98345.44
2023-06-01T02:12:12.111Z,98346.41
2023-06-01T02:14:39.678Z,98334.00
2023-06-01T02:17:08.417Z,98343.53
2023-06-01T02:19:35.512Z,98336.00
2023-06-01T02:22:02.944Z,98341.03
2023-06-01T02:24:30.232Z,98331.50
2023-06-01T02:26:57.563Z,98330.50
2023-06-01T02:29:25.836Z,98335.69
2023-06-01T02:31:53.720Z,98343.91
2023-06-01T02:34:21.134Z,98345.03
2023-06-01T02:36:49.476Z,98338.50
2023-06-01T02:39:18.144Z,98347.38
2023-06-01T02:41:45.561Z,98336.06
2023-06-01T02:44:12.996Z,98334.06
2023-06-01T02:46:39.988Z,98337.25
2023-06-01T02:49:07.204Z,98343.47
2023-06-01T02:51:34.994Z,98341.09
2023-06-01T02:54:12.731Z,98342.19
2023-06-01T02:56:39.849Z,98333.97
2023-06-01T02:59:15.553Z,98332.44
2023-06-01T03:01:48.573Z,98332.94
2023-06-01T03:04:16.239Z,98333.91
2023-06-01T03:06:44.466Z,98336.06
2023-06-01T03:09:30.510Z,98334.91
2023-06-01T03:12:07.445Z,98337.06
2023-06-01T03:14:36.126Z,98335.44
2023-06-01T03:17:03.212Z,98336.25
2023-06-01T03:19:30.382Z,98334.28
2023-06-01T03:22:00.590Z,98338.19
2023-06-01T03:24:29.105Z,98340.63
2023-06-01T03:26:59.696Z,98343.56
2023-06-01T03:29:28.839Z,98346.88
2023-06-01T03:31:55.947Z,98339.44
2023-06-01T03:34:24.203Z,98344.75
2023-06-01T03:36:51.202Z,98346.94
2023-06-01T03:39:18.633Z,98352.66
2023-06-01T03:41:46.608Z,98355.28
2023-06-01T03:44:13.684Z,98365.69
2023-06-01T03:46:41.787Z,98361.34
2023-06-01T03:49:09.064Z,98359.28
2023-06-01T03:51:37.158Z,98365.72
2023-06-01T03:54:04.229Z,98363.78
2023-06-01T03:56:31.415Z,98364.47
2023-06-01T03:59:02.763Z,98362.44
2023-06-01T04:01:30.761Z,98361.81
2023-06-01T04:03:58.206Z,98356.47
2023-06-01T04:06:26.036Z,98350.44
2023-06-01T04:08:58.741Z,98360.09
2023-06-01T04:11:27.525Z,98363.09
2023-06-01T04:13:57.069Z,98360.16
2023-06-01T04:16:24.252Z,98372.97
2023-06-01T04:18:52.406Z,98371.44
2023-06-01T04:21:22.992Z,98368.31
2023-06-01T04:23:51.260Z,98364.00
2023-06-01T04:26:20.025Z,98364.19
2023-06-01T04:28:49.667Z,98370.50
2023-06-01T04:31:20.584Z,98364.84
2023-06-01T04:33:57.282Z,98372.63
2023-06-01T04:36:25.500Z,98376.19
2023-06-01T04:38:56.342Z,98366.22
2023-06-01T04:41:24.079Z,98368.63
2023-06-01T04:43:53.716Z,98365.75
2023-06-01T04:46:24.972Z,98360.59
2023-06-01T04:48:56.518Z,98363.94
2023-06-01T04:51:24.624Z,98370.19
2023-06-01T04:53:54.161Z,98367.34
2023-06-01T04:56:27.715Z,98373.63
2023-06-01T04:58:56.885Z,98365.94
2023-06-01T05:01:30.417Z,98377.78
2023-06-01T05:03:58.256Z,98376.56
2023-06-01T05:06:29.082Z,98371.81
2023-06-01T05:08:56.587Z,98379.19
2023-06-01T05:11:24.412Z,98381.78
2023-06-01T05:13:53.469Z,98388.53
2023-06-01T05:16:21.749Z,98393.91
2023-06-01T05:18:50.335Z,98390.34
2023-06-01T05:21:17.468Z,98395.38
2023-06-01T05:23:44.712Z,98396.53
2023-06-01T05:26:12.811Z,98396.47
2023-06-01T05:28:39.947Z,98397.63
2023-06-01T05:31:10.309Z,98388.91
2023-06-01T05:33:43.316Z,98392.75
2023-06-01T05:36:11.284Z,98390.00
2023-06-01T05:38:39.944Z,98389.41
2023-06-01T05:41:07.416Z,98394.50
2023-06-01T05:43:37.268Z,98395.59
2023-06-01T05:46:05.907Z,98398.66
2023-06-01T05:48:33.192Z,98396.56
2023-06-01T05:51:00.829Z,98403.38
2023-06-01T05:53:28.716Z,98400.19
2023-06-01T05:55:55.906Z,98394.56
2023-06-01T05:58:23.606Z,98391.38
2023-06-01T06:00:50.757Z,98391.97
2023-06-01T06:03:18.143Z,98387.66
2023-06-01T06:05:46.097Z,98396.31
2023-06-01T06:08:13.334Z,98394.44
2023-06-01T06:10:40.479Z,98399.06
2023-06-01T06:13:07.558Z,98389.03
2023-06-01T06:15:34.645Z,98391.97
2023-06-01T06:18:01.715Z,98382.00
2023-06-01T06:20:28.849Z,98389.63
2023-06-01T06:22:56.049Z,98386.22
2023-06-01T06:25:23.369Z,98390.78
2023-06-01T06:27:50.456Z,98384.44
2023-06-01T06:30:17.972Z,98386.38
2023-06-01T06:32:45.016Z,98379.38
2023-06-01T06:35:14.137Z,98385.25
2023-06-01T06:37:42.776Z,98388.75
2023-06-01T06:40:10.489Z,98389.88
2023-06-01T06:42:37.686Z,98388.88
2023-06-01T06:45:07.982Z,98392.81
2023-06-01T06:47:35.303Z,98390.69
2023-06-01T06:50:02.832Z,98386.09
2023-06-01T06:52:30.005Z,98388.41
2023-06-01T06:54:57.062Z,98389.56
2023-06-01T06:57:24.071Z,98391.25
2023-06-01T06:59:50.999Z,98382.59
2023-06-01T07:02:18.036Z,98395.19
2023-06-01T07:04:45.319Z,98384.59
2023-06-01T07:07:12.589Z,98384.91
2023-06-01T07:09:40.779Z,98387.34
2023-06-01T07:12:08.473Z,98389.72
2023-06-01T07:14:36.073Z,98391.50
2023-06-01T07:17:03.202Z,98390.97
2023-06-01T07:19:36.352Z,98388.56
2023-06-01T07:22:06.514Z,98384.16
2023-06-01T07:24:33.650Z,98384.72
2023-06-01T07:27:01.048Z,98384.53
2023-06-01T07:29:29.081Z,98382.09
2023-06-01T07:31:56.654Z,98380.72
2023-06-01T07:34:24.369Z,98379.72
2023-06-01T07:36:55.143Z,98377.63
2023-06-01T07:39:26.988Z,98384.84
2023-06-01T07:41:54.698Z,98381.25
2023-06-01T07:44:22.268Z,98370.53
2023-06-01T07:46:49.280Z,98379.03
2023-06-01T07:49:16.519Z,98379.22
2023-06-01T07:51:44.650Z,98380.13
2023-06-01T07:54:12.062Z,98379.97
2023-06-01T07:56:39.163Z,98375.38
2023-06-01T07:59:06.843Z,98372.97
2023-06-01T08:01:34.894Z,98367.63
2023-06-01T08:04:02.952Z,98370.19
2023-06-01T08:06:36.762Z,98371.88
2023-06-01T08:09:05.063Z,98374.34
2023-06-01T08:11:32.126Z,98366.38
2023-06-01T08:14:01.115Z,98369.44
2023-06-01T08:16:28.291Z,98365.28
2023-06-01T08:18:56.907Z,98367.09
2023-06-01T08:21:26.198Z,98361.25
2023-06-01T08:23:57.453Z,98369.94
2023-06-01T08:26:26.671Z,98363.81
2023-06-01T08:28:54.096Z,98358.56
2023-06-01T08:31:23.697Z,98362.81
2023-06-01T08:33:51.996Z,98355.81
2023-06-01T08:36:20.799Z,98359.81
2023-06-01T08:38:47.826Z,98358.00
2023-06-01T08:41:37.253Z,98350.22
2023-06-01T08:44:06.912Z,98347.16
2023-06-01T08:46:35.897Z,98345.88
2023-06-01T08:49:03.386Z,98354.59
2023-06-01T08:51:34.827Z,98345.94
2023-06-01T08:54:06.312Z,98337.31
2023-06-01T08:56:33.871Z,98339.66
2023-06-01T08:59:01.739Z,98336.97
2023-06-01T09:01:29.330Z,98330.00
2023-06-01T09:03:56.621Z,98333.00
2023-06-01T09:06:23.718Z,98330.56
2023-06-01T09:08:51.379Z,98338.94
2023-06-01T09:11:18.592Z,98328.50
2023-06-01T09:13:45.708Z,98324.56
2023-06-01T09:16:13.458Z,98325.06
2023-06-01T09:18:56.387Z,98318.16
2023-06-01T09:21:23.502Z,98324.03
2023-06-01T09:23:50.620Z,98322.00
2023-06-01T09:26:20.017Z,98317.47
2023-06-01T09:28:57.783Z,98313.66
2023-06-01T09:31:43.324Z,98320.78
2023-06-01T09:34:12.467Z,98318.75
2023-06-01T09:36:39.959Z,98319.47
2023-06-01T09:39:12.971Z,98320.66
2023-06-01T09:41:59.805Z,98315.47
2023-06-01T09:44:35.969Z,98313.28
2023-06-01T09:47:10.351Z,98307.63
2023-06-01T09:49:45.820Z,98301.53
2023-06-01T09:52:18.042Z,98307.59
2023-06-01T09:54:55.731Z,98322.06
2023-06-01T09:57:30.774Z,98318.13
2023-06-01T09:59:58.476Z,98307.00
2023-06-01T10:02:26.585Z,98311.31
2023-06-01T10:04:59.952Z,98305.94
2023-06-01T10:07:31.508Z,98298.72
2023-06-01T10:10:01.331Z,98298.72
2023-06-01T10:12:29.463Z,98301.56
2023-06-01T10:15:00.102Z,98294.28
2023-06-01T10:17:27.803Z,98302.13
2023-06-01T10:19:57.036Z,98294.25
2023-06-01T10:22:24.684Z,98282.72
2023-06-01T10:24:57.232Z,98283.16
2023-06-01T10:27:40.264Z,98282.34
2023-06-01T10:30:10.553Z,98273.19
2023-06-01T10:32:49.562Z,98269.38
2023-06-01T10:35:34.555Z,98267.75
2023-06-01T10:38:07.966Z,98266.94
2023-06-01T10:40:35.988Z,98267.84
2023-06-01T10:43:03.833Z,98264.19
2023-06-01T10:45:41.857Z,98275.75
2023-06-01T10:48:13.642Z,98264.38
2023-06-01T10:50:43.180Z,98262.06
2023-06-01T10:53:29.590Z,98257.72
2023-06-01T10:56:27.790Z,98258.44
2023-06-01T10:59:18.318Z,98254.44
2023-06-01T11:01:48.270Z,98245.91
2023-06-01T11:04:16.204Z,98247.72
2023-06-01T11:06:45.011Z,98245.34
2023-06-01T11:09:14.086Z,98248.72
2023-06-01T11:11:51.966Z,98260.25
2023-06-01T11:14:25.198Z,98259.25
2023-06-01T11:16:54.197Z,98248.66
2023-06-01T11:19:27.172Z,98234.59
2023-06-01T11:22:06.794Z,98238.72
2023-06-01T11:24:37.408Z,98242.97
2023-06-01T11:27:11.163Z,98224.59
2023-06-01T11:29:38.607Z,98241.44
2023-06-01T11:32:07.526Z,98238.63
2023-06-01T11:34:42.059Z,98242.75
2023-06-01T11:37:18.962Z,98239.47
2023-06-01T11:39:48.282Z,98234.00
2023-06-01T11:42:18.330Z,98221.38
2023-06-01T11:44:55.641Z,98226.03
2023-06-01T11:47:22.908Z,98228.09
2023-06-01T11:49:53.117Z,98225.25
2023-06-01T11:52:21.260Z,98217.13
2023-06-01T11:54:49.499Z,98210.16
2023-06-01T11:57:16.800Z,98206.69
2023-06-01T11:59:49.071Z,98225.81
2023-06-01T12:02:27.862Z,98215.56
2023-06-01T12:05:02.994Z,98206.72
2023-06-01T12:07:30.622Z,98199.38
2023-06-01T12:09:59.658Z,98202.34
2023-06-01T12:12:26.960Z,98196.44
2023-06-01T12:14:54.244Z,98200.78
2023-06-01T12:17:21.741Z,98199.19
2023-06-01T12:19:49.992Z,98193.38
2023-06-01T12:22:18.002Z,98196.91
2023-06-01T12:24:45.970Z,98189.84
2023-06-01T12:27:20.558Z,98182.69
2023-06-01T12:29:48.929Z,98181.88
2023-06-01T12:32:18.948Z,98174.94
2023-06-01T12:35:05.205Z,98172.28
2023-06-01T12:37:32.149Z,98170.75
2023-06-01T12:40:00.966Z,98162.06
2023-06-01T12:42:41.977Z,98168.28
2023-06-01T12:45:09.610Z,98171.38
2023-06-01T12:47:42.982Z,98176.00
2023-06-01T12:50:13.766Z,98171.72
2023-06-01T12:52:43.333Z,98171.53
2023-06-01T12:55:11.058Z,98164.28
2023-06-01T12:57:42.213Z,98156.25
2023-06-01T13:00:10.166Z,98157.16
2023-06-01T13:02:37.645Z,98156.84
2023-06-01T13:05:07.154Z,98157.56
2023-06-01T13:07:34.735Z,98151.81
2023-06-01T13:10:01.878Z,98150.09
2023-06-01T13:12:29.326Z,98146.66
2023-06-01T13:14:58.001Z,98138.63
2023-06-01T13:17:25.101Z,98146.13
2023-06-01T13:19:53.711Z,98147.84
2023-06-01T13:22:20.730Z,98139.13
2023-06-01T13:25:03.541Z,98138.56
2023-06-01T13:27:33.321Z,98136.44
2023-06-01T13:30:00.323Z,98145.97
2023-06-01T13:32:27.350Z,98132.38
2023-06-01T13:34:55.193Z,98136.72
2023-06-01T13:37:24.214Z,98128.66
2023-06-01T13:39:51.656Z,98123.69
2023-06-01T13:42:20.368Z,98122.13
2023-06-01T13:44:48.936Z,98119.88
2023-06-01T13:47:16.842Z,98117.44
2023-06-01T13:49:45.702Z,98126.34
2023-06-01T13:52:13.274Z,98108.13
2023-06-01T13:54:40.480Z,98103.34
2023-06-01T13:57:08.645Z,98100.72
2023-06-01T13:59:37.063Z,98109.13
2023-06-01T14:02:05.451Z,98108.22
2023-06-01T14:04:32.952Z,98110.72
2023-06-01T14:06:59.954Z,98097.88
2023-06-01T14:09:27.195Z,98106.28
2023-06-01T14:11:54.195Z,98096.78
2023-06-01T14:14:21.227Z,98097.25
2023-06-01T14:16:48.232Z,98098.91
2023-06-01T14:19:15.352Z,98096.97
2023-06-01T14:21:42.699Z,98098.41
2023-06-01T14:24:10.002Z,98089.88
2023-06-01T14:26:37.043Z,98096.56
2023-06-01T14:29:04.268Z,98090.19
2023-06-01T14:31:31.855Z,98087.63
2023-06-01T14:33:59.190Z,98082.81
2023-06-01T14:36:34.420Z,98084.69
2023-06-01T14:39:12.784Z,98082.53
2023-06-01T14:41:43.365Z,98084.91
2023-06-01T14:44:12.136Z,98073.72
2023-06-01T14:46:39.268Z,98081.53
2023-06-01T14:49:06.366Z,98069.94
2023-06-01T14:51:34.089Z,98072.50
2023-06-01T14:54:01.114Z,98083.75
2023-06-01T14:56:28.217Z,98085.16
2023-06-01T14:58:55.522Z,98073.50
2023-06-01T15:01:24.990Z,98073.13
2023-06-01T15:03:52.279Z,98068.34
2023-06-01T15:06:19.533Z,98073.28
2023-06-01T15:08:46.558Z,98073.44
2023-06-01T15:11:15.412Z,98081.91
2023-06-01T15:13:43.544Z,98077.84
2023-06-01T15:16:11.045Z,98071.94
2023-06-01T15:18:38.242Z,98072.88
2023-06-01T15:21:05.817Z,98070.31
2023-06-01T15:23:33.015Z,98062.72
2023-06-01T15:26:00.123Z,98066.88
2023-06-01T15:28:27.136Z,98058.03
2023-06-01T15:30:54.350Z,98056.75
2023-06-01T15:33:22.197Z,98045.88
2023-06-01T15:35:49.323Z,98054.84
2023-06-01T15:38:16.360Z,98061.91
2023-06-01T15:40:43.716Z,98060.84
2023-06-01T15:43:10.786Z,98053.88
2023-06-01T15:45:37.933Z,98057.09
2023-06-01T15:48:04.985Z,98045.03
2023-06-01T15:50:31.952Z,98048.06
2023-06-01T15:52:58.971Z,98053.53
2023-06-01T15:55:26.072Z,98048.91
2023-06-01T15:57:53.140Z,98041.06
2023-06-01T16:00:20.695Z,98044.25
2023-06-01T16:02:48.135Z,98042.78
2023-06-01T16:05:15.638Z,98036.88
2023-06-01T16:07:42.934Z,98045.75
2023-06-01T16:10:10.465Z,98050.16
2023-06-01T16:12:37.460Z,98037.69
2023-06-01T16:15:04.932Z,98032.41
2023-06-01T16:17:32.211Z,98031.59
2023-06-01T16:20:01.092Z,98029.78
2023-06-01T16:22:28.131Z,98029.81
2023-06-01T16:24:55.106Z,98025.94
2023-06-01T16:27:22.353Z,98026.56
2023-06-01T16:29:49.520Z,98020.72
2023-06-01T16:32:17.008Z,98018.63
2023-06-01T16:34:44.241Z,98013.56
2023-06-01T16:37:11.291Z,98017.38
2023-06-01T16:39:38.330Z,98019.03
2023-06-01T16:42:06.222Z,98014.69
2023-06-01T16:44:33.227Z,98015.72
2023-06-01T16:47:00.226Z,98009.56
2023-06-01T16:49:27.209Z,98013.81
2023-06-01T16:51:54.226Z,98005.66
2023-06-01T16:54:21.308Z,98008.25
2023-06-01T16:56:48.326Z,98003.84
2023-06-01T16:59:15.416Z,98009.75
2023-06-01T17:01:43.068Z,98002.13
2023-06-01T17:04:10.322Z,98005.38
2023-06-01T17:06:37.582Z,98000.69
2023-06-01T17:09:04.760Z,98000.16
2023-06-01T17:11:31.798Z,98003.47
2023-06-01T17:13:58.861Z,97992.41
2023-06-01T17:16:26.092Z,97994.66
2023-06-01T17:18:53.293Z,98006.38
2023-06-01T17:21:20.524Z,97998.00
2023-06-01T17:23:47.512Z,97997.69
2023-06-01T17:26:14.544Z,97996.88
2023-06-01T17:28:42.257Z,97988.38
2023-06-01T17:31:09.439Z,97996.03
2023-06-01T17:33:36.649Z,97996.81
2023-06-01T17:36:04.060Z,98000.50
2023-06-01T17:38:31.423Z,97996.56
2023-06-01T17:40:58.883Z,97992.41
2023-06-01T17:43:25.901Z,97993.66
2023-06-01T17:45:53.079Z,97996.56
2023-06-01T17:48:20.269Z,97995.13
2023-06-01T17:50:47.559Z,97997.47
2023-06-01T17:53:39.499Z,97990.56
2023-06-01T17:56:02.933Z,97999.22
2023-06-01T17:58:30.480Z,97996.56
2023-06-01T18:00:57.599Z,97988.53
2023-06-01T18:03:24.703Z,97988.06
2023-06-01T18:05:51.866Z,97995.28
2023-06-01T18:08:18.882Z,97991.19
2023-06-01T18:10:46.300Z,97988.38
2023-06-01T18:13:13.393Z,97997.09
2023-06-01T18:15:40.606Z,97989.13
2023-06-01T18:18:07.753Z,97988.03
2023-06-01T18:20:34.919Z,97980.69
2023-06-01T18:23:01.994Z,97985.50
2023-06-01T18:25:29.296Z,97983.19
2023-06-01T18:27:56.453Z,97988.84
2023-06-01T18:30:23.970Z,97991.91
2023-06-01T18:32:51.099Z,97995.44
2023-06-01T18:35:18.272Z,97993.50
2023-06-01T18:37:45.588Z,97997.19
2023-06-01T18:40:12.975Z,97997.69
2023-06-01T18:42:40.098Z,97989.66
2023-06-01T18:45:08.134Z,97994.28
2023-06-01T18:47:35.194Z,97998.81
2023-06-01T18:50:02.440Z,97996.56
2023-06-01T18:52:29.434Z,97992.53
2023-06-01T18:54:57.412Z,97990.47
2023-06-01T18:57:25.052Z,98001.22
2023-06-01T18:59:52.544Z,97995.78
2023-06-01T19:02:25.435Z,97999.63
2023-06-01T19:05:06.496Z,98000.09
2023-06-01T19:07:37.995Z,97991.13
2023-06-01T19:10:10.434Z,97995.28
2023-06-01T19:12:37.902Z,97996.19
2023-06-01T19:15:13.357Z,97997.69
2023-06-01T19:17:41.251Z,97998.56
2023-06-01T19:20:51.625Z,97996.66
2023-06-01T19:23:18.613Z,98000.75
2023-06-01T19:25:45.792Z,97995.19
2023-06-01T19:28:12.876Z,98001.47
2023-06-01T19:30:39.939Z,97999.97
2023-06-01T19:33:07.231Z,98000.38
2023-06-01T19:35:34.324Z,98000.38
2023-06-01T19:38:01.621Z,98009.59
2023-06-01T19:40:29.921Z,98014.81
2023-06-01T19:42:58.534Z,98013.88
2023-06-01T19:45:25.591Z,98012.88
2023-06-01T19:47:53.962Z,98017.09
2023-06-01T19:50:44.822Z,98016.69
2023-06-01T19:53:15.540Z,98013.56
2023-06-01T19:55:44.194Z,98015.00
2023-06-01T19:58:14.043Z,98013.50
2023-06-01T20:00:41.534Z,98013.25
2023-06-01T20:03:16.451Z,98015.53
2023-06-01T20:05:43.526Z,98013.81
2023-06-01T20:08:14.949Z,98018.47
2023-06-01T20:10:42.222Z,98024.75
2023-06-01T20:13:09.319Z,98022.25
2023-06-01T20:15:41.852Z,98028.59
2023-06-01T20:18:09.314Z,98030.44
2023-06-01T20:20:39.201Z,98029.66
2023-06-01T20:23:11.454Z,98025.03
2023-06-01T20:25:43.903Z,98035.03
2023-06-01T20:28:15.560Z,98035.59
2023-06-01T20:31:04.909Z,98041.44
2023-06-01T20:33:33.584Z,98048.41
2023-06-01T20:36:09.395Z,98050.25
2023-06-01T20:38:42.664Z,98041.22
2023-06-01T20:41:22.947Z,98037.16
2023-06-01T20:43:52.711Z,98039.22
2023-06-01T20:46:22.607Z,98046.94
2023-06-01T20:48:57.294Z,98038.06
2023-06-01T20:51:33.736Z,98046.66
2023-06-01T20:54:13.106Z,98045.72
2023-06-01T20:56:49.176Z,98039.16
2023-06-01T20:59:27.018Z,98045.34
2023-06-01T21:01:57.475Z,98049.75
2023-06-01T21:04:34.984Z,98049.53
2023-06-01T21:07:03.735Z,98046.53
2023-06-01T21:09:30.780Z,98047.81
2023-06-01T21:12:00.544Z,98046.13
2023-06-01T21:14:27.774Z,98058.69
2023-06-01T21:16:55.120Z,98050.63
2023-06-01T21:19:22.534Z,98051.34
2023-06-01T21:21:49.607Z,98056.88
2023-06-01T21:24:16.866Z,98049.53
2023-06-01T21:26:47.364Z,98043.06
2023-06-01T21:29:14.519Z,98046.00
2023-06-01T21:31:41.761Z,98049.72
2023-06-01T21:34:08.870Z,98045.78
2023-06-01T21:36:37.645Z,98058.56
2023-06-01T21:39:04.853Z,98058.28
2023-06-01T21:41:32.050Z,98046.78
2023-06-01T21:43:59.276Z,98057.97
2023-06-01T21:46:26.309Z,98046.63
2023-06-01T21:48:53.918Z,98047.13
2023-06-01T21:51:21.052Z,98050.25
2023-06-01T21:53:48.443Z,98050.88
2023-06-01T21:56:15.913Z,98051.94
2023-06-01T21:58:43.433Z,98050.06
2023-06-01T22:01:10.705Z,98055.56
2023-06-01T22:03:37.963Z,98055.19
2023-06-01T22:06:06.912Z,98050.31
2023-06-01T22:08:34.258Z,98054.16
2023-06-01T22:11:01.429Z,98058.75
2023-06-01T22:13:28.569Z,98057.13
2023-06-01T22:15:55.851Z,98062.72
2023-06-01T22:18:23.121Z,98064.13
2023-06-01T22:20:50.253Z,98071.81
2023-06-01T22:23:17.400Z,98064.94
2023-06-01T22:25:44.521Z,98074.59
2023-06-01T22:28:11.984Z,98070.34
2023-06-01T22:30:40.241Z,98081.19
2023-06-01T22:33:07.336Z,98074.28
2023-06-01T22:35:34.409Z,98070.13
2023-06-01T22:38:01.464Z,98074.81
2023-06-01T22:40:28.557Z,98072.00
2023-06-01T22:42:55.620Z,98086.25
2023-06-01T22:45:24.785Z,98083.16
2023-06-01T22:47:52.519Z,98083.69
2023-06-01T22:50:20.319Z,98088.69
2023-06-01T22:52:49.464Z,98089.47
2023-06-01T22:55:17.101Z,98087.50
2023-06-01T22:57:44.356Z,98088.59
2023-06-01T23:00:12.683Z,98089.75
2023-06-01T23:02:40.084Z,98087.88
2023-06-01T23:05:07.740Z,98093.50
2023-06-01T23:07:37.366Z,98094.63
2023-06-01T23:10:05.668Z,98089.53
2023-06-01T23:12:36.127Z,98085.94
2023-06-01T23:15:04.481Z,98087.13
2023-06-01T23:17:33.998Z,98089.91
2023-06-01T23:20:05.563Z,98084.41
2023-06-01T23:22:37.741Z,98077.72
2023-06-01T23:25:05.988Z,98087.69
2023-06-01T23:27:33.208Z,98088.28
2023-06-01T23:30:00.563Z,98080.66
2023-06-01T23:32:27.696Z,98084.41
2023-06-01T23:34:54.684Z,98083.59
2023-06-01T23:37:22.481Z,98088.16
2023-06-01T23:39:49.520Z,98089.72
2023-06-01T23:42:16.571Z,98093.00
2023-06-01T23:44:43.565Z,98085.13
2023-06-01T23:47:10.553Z,98086.31
2023-06-01T23:49:38.072Z,98087.88
2023-06-01T23:52:05.595Z,98087.94
2023-06-01T23:54:32.614Z,98092.34
2023-06-01T23:56:59.675Z,98089.63
2023-06-01T23:59:26.714Z,98090.41
